Time;durP1;ratioP1;P1;durP2;ratioP2;P2;SDS_P1;SDS_P2;PMS_P1;PMS_P2;Temp;Humidity;BMP_temperature;BMP_pressure;BME280_temperature;BME280_humidity;BME280_pressure;Samples;Min_cycle;Max_cycle;Signal;HPM_P1;HPM_P2
2023/11/14 00:00:51;;;;;;;2.30;1.23;;;;;;;9.68;90.02;92182.91;2067814;69;20144;-81
2023/11/14 00:03:16;;;;;;;3.58;1.30;;;;;;;9.78;89.95;92146.19;2071536;69;20252;-81
2023/11/14 00:05:42;;;;;;;2.10;1.33;;;;;;;9.88;88.87;92174.13;2071525;69;20156;-81
2023/11/14 00:08:07;;;;;;;1.92;1.33;;;;;;;9.60;90.82;92192.97;2071539;69;20187;-86
2023/11/14 00:10:33;;;;;;;1.85;1.20;;;;;;;9.76;89.82;92174.22;2071410;69;20289;-82
2023/11/14 00:12:59;;;;;;;3.67;1.10;;;;;;;9.85;90.53;92159.25;2071355;69;20641;-80
2023/11/14 00:15:26;;;;;;;9.30;1.30;;;;;;;9.93;89.43;92164.56;2068222;69;20159;-81
2023/11/14 00:17:54;;;;;;;2.05;1.40;;;;;;;9.79;90.03;92156.09;2071637;69;20209;-79
2023/11/14 00:20:21;;;;;;;4.22;1.33;;;;;;;9.92;89.41;92143.44;2068122;69;20673;-81
2023/11/14 00:22:46;;;;;;;3.17;1.50;;;;;;;9.63;90.28;92135.53;2071479;69;20168;-84
2023/11/14 00:25:13;;;;;;;1.90;1.20;;;;;;;9.88;89.84;92120.72;2068120;69;20136;-79
2023/11/14 00:27:39;;;;;;;1.30;0.95;;;;;;;10.00;88.50;92129.09;2071711;69;20195;-79
2023/11/14 00:30:06;;;;;;;2.58;1.08;;;;;;;10.03;88.82;92147.50;2071573;69;20152;-81
2023/11/14 00:32:31;;;;;;;2.08;1.00;;;;;;;10.00;88.94;92132.63;2071369;69;20167;-83
2023/11/14 00:34:58;;;;;;;4.88;2.25;;;;;;;9.83;89.69;92138.72;2071589;69;20515;-80
2023/11/14 00:37:24;;;;;;;2.05;1.40;;;;;;;9.81;89.87;92121.75;2071320;69;20180;-77
2023/11/14 00:39:51;;;;;;;1.92;1.10;;;;;;;9.91;89.35;92139.16;2071244;69;20604;-83
2023/11/14 00:42:16;;;;;;;1.30;1.00;;;;;;;9.87;89.45;92145.28;2068340;69;20148;-81
2023/11/14 00:44:42;;;;;;;3.03;1.80;;;;;;;10.07;89.18;92123.16;2071480;69;20225;-85
2023/11/14 00:47:10;;;;;;;4.25;1.25;;;;;;;9.87;90.31;92148.09;2071430;69;20159;-79
2023/11/14 00:49:39;;;;;;;2.53;1.10;;;;;;;9.73;91.36;92166.28;2068351;69;20185;-79
2023/11/14 00:52:05;;;;;;;2.72;1.20;;;;;;;9.88;90.86;92166.41;2071512;69;20183;-81
2023/11/14 00:54:31;;;;;;;1.90;1.10;;;;;;;10.03;89.51;92167.19;2068192;69;20136;-80
2023/11/14 00:56:57;;;;;;;7.07;1.30;;;;;;;10.04;89.38;92169.41;2068076;69;20600;-86
2023/11/14 00:59:23;;;;;;;2.10;1.00;;;;;;;10.05;88.71;92147.63;2071426;69;20169;-85
2023/11/14 01:01:49;;;;;;;3.85;1.10;;;;;;;10.20;88.20;92161.09;2071246;69;20253;-83
2023/11/14 01:04:18;;;;;;;2.67;1.10;;;;;;;10.01;89.41;92153.03;2068087;69;20706;-83
2023/11/14 01:06:45;;;;;;;3.13;1.20;;;;;;;10.14;88.80;92167.13;2068099;69;20592;-82
2023/11/14 01:09:11;;;;;;;4.15;1.63;;;;;;;9.83;89.15;92167.56;2068179;69;20271;-82
2023/11/14 01:11:37;;;;;;;3.13;1.27;;;;;;;10.03;89.19;92165.09;2068339;69;20155;-81
2023/11/14 01:14:02;;;;;;;4.40;1.38;;;;;;;10.24;88.57;92205.59;2072321;69;20222;-82
2023/11/14 01:16:28;;;;;;;5.15;1.30;;;;;;;10.30;88.57;92212.28;2073589;69;20167;-79
2023/11/14 01:18:54;;;;;;;4.88;1.17;;;;;;;9.97;90.74;92234.34;2070312;69;20145;-84
2023/11/14 01:21:21;;;;;;;3.05;1.70;;;;;;;9.97;90.71;92239.97;2072397;69;20935;-81
2023/11/14 01:23:46;;;;;;;2.45;1.50;;;;;;;10.00;90.46;92238.75;2068865;69;20132;-82
2023/11/14 01:26:13;;;;;;;3.58;1.48;;;;;;;10.04;89.73;92231.28;2068510;69;20515;-80
2023/11/14 01:28:40;;;;;;;2.33;1.50;;;;;;;10.07;89.89;92229.28;2068792;69;20172;-82
2023/11/14 01:31:06;;;;;;;5.25;1.70;;;;;;;10.16;89.69;92243.16;2068699;69;20158;-84
2023/11/14 01:33:31;;;;;;;3.53;1.80;;;;;;;9.99;90.23;92240.84;2068515;69;20141;-84
2023/11/14 01:35:57;;;;;;;4.25;2.38;;;;;;;10.05;90.03;92243.97;2068389;69;20220;-81
2023/11/14 01:38:25;;;;;;;3.75;2.20;;;;;;;10.16;88.89;92242.44;2068098;69;20562;-79
2023/11/14 01:40:52;;;;;;;4.95;1.70;;;;;;;10.20;88.17;92248.28;2071656;69;20676;-80
2023/11/14 01:43:17;;;;;;;2.42;1.67;;;;;;;9.48;92.60;92257.63;2071982;69;20608;-80
2023/11/14 01:45:44;;;;;;;2.25;1.67;;;;;;;9.80;91.92;92261.56;2065850;69;20140;-81
2023/11/14 01:48:12;;;;;;;2.08;1.48;;;;;;;9.96;90.87;92278.63;2065800;69;20148;-81
2023/11/14 01:50:38;;;;;;;4.75;1.55;;;;;;;10.14;90.08;92268.38;2068617;69;20591;-78
2023/11/14 01:53:07;;;;;;;3.28;1.50;;;;;;;10.10;90.38;92267.44;2065374;69;20164;-79
2023/11/14 01:55:35;;;;;;;3.92;1.45;;;;;;;10.05;91.01;92265.75;2068459;69;20156;-82
2023/11/14 01:58:01;;;;;;;2.17;1.40;;;;;;;10.04;91.66;92258.66;2071894;69;20188;-79
2023/11/14 02:00:28;;;;;;;3.42;1.17;;;;;;;10.09;91.37;92251.91;2068488;69;20267;-80
2023/11/14 02:02:56;;;;;;;1.38;0.88;;;;;;;10.25;90.05;92244.38;2068282;69;20147;-80
2023/11/14 02:05:24;;;;;;;3.92;1.00;;;;;;;10.18;90.82;92240.47;2068644;69;20137;-82
2023/11/14 02:07:51;;;;;;;1.45;0.90;;;;;;;10.18;90.33;92246.09;2065960;69;20182;-83
2023/11/14 02:10:22;;;;;;;3.13;1.30;;;;;;;10.02;91.64;92261.34;2071887;69;20206;-83
2023/11/14 02:12:58;;;;;;;3.10;1.30;;;;;;;10.10;91.12;92259.00;2068562;69;20152;-83
2023/11/14 02:15:28;;;;;;;2.30;1.20;;;;;;;9.98;91.22;92272.38;2071947;69;20148;-83
2023/11/14 02:17:57;;;;;;;3.63;1.92;;;;;;;9.75;92.61;92259.84;2071946;69;20194;-83
2023/11/14 02:20:24;;;;;;;3.72;1.58;;;;;;;9.90;93.42;92259.31;2068543;69;20221;-81
2023/11/14 02:22:50;;;;;;;1.73;1.30;;;;;;;10.11;92.06;92254.81;2072064;69;20151;-84
2023/11/14 02:25:18;;;;;;;1.77;1.40;;;;;;;9.85;92.35;92249.22;2068580;69;20220;-84
2023/11/14 02:27:46;;;;;;;4.15;1.20;;;;;;;10.05;91.94;92232.00;2071934;69;20131;-82
2023/11/14 02:30:19;;;;;;;2.53;1.00;;;;;;;9.99;92.30;92211.97;2072047;69;20168;-83
2023/11/14 02:32:46;;;;;;;3.53;1.52;;;;;;;10.13;91.10;92207.88;2071826;69;20484;-82
2023/11/14 02:35:15;;;;;;;3.88;1.00;;;;;;;10.15;91.17;92236.09;2072034;69;20179;-82
2023/11/14 02:37:45;;;;;;;1.73;1.08;;;;;;;10.09;92.76;92275.13;2072001;69;20120;-83
2023/11/14 02:40:14;;;;;;;4.55;1.38;;;;;;;10.21;92.01;92282.78;2071341;69;20193;-80
2023/11/14 02:42:43;;;;;;;4.55;1.58;;;;;;;10.25;90.57;92286.56;2071721;69;20156;-83
2023/11/14 02:45:10;;;;;;;2.00;1.23;;;;;;;9.95;92.26;92288.41;2071328;69;20632;-80
2023/11/14 02:47:39;;;;;;;2.40;1.38;;;;;;;10.08;92.16;92287.75;2065404;69;20579;-81
2023/11/14 02:50:18;;;;;;;3.72;1.45;;;;;;;10.11;91.53;92271.69;2068289;69;20220;-80
2023/11/14 02:52:45;;;;;;;2.80;1.00;;;;;;;10.15;91.65;92272.66;2068258;69;20168;-83
2023/11/14 02:55:12;;;;;;;1.90;0.80;;;;;;;10.17;92.04;92264.34;2068111;69;20190;-83
2023/11/14 02:57:38;;;;;;;4.00;0.98;;;;;;;10.19;91.82;92272.88;2071510;69;20156;-82
2023/11/14 03:00:07;;;;;;;4.22;0.90;;;;;;;10.27;90.20;92255.75;2071058;69;20176;-85
2023/11/14 03:02:35;;;;;;;2.67;1.00;;;;;;;10.40;90.26;92252.25;2071267;69;20140;-82
2023/11/14 03:05:00;;;;;;;1.35;0.80;;;;;;;10.23;91.57;92238.63;2071484;69;20618;-83
2023/11/14 03:07:26;;;;;;;3.42;1.35;;;;;;;10.31;91.52;92260.84;2073917;69;20156;-81
2023/11/14 03:09:53;;;;;;;2.38;1.10;;;;;;;10.31;91.25;92255.97;2069377;69;20162;-83
2023/11/14 03:12:19;;;;;;;1.70;1.25;;;;;;;10.36;91.21;92260.47;2072057;69;20204;-84
2023/11/14 03:14:45;;;;;;;1.48;0.90;;;;;;;10.10;93.85;92253.38;2071390;69;20140;-81
2023/11/14 03:17:10;;;;;;;6.72;1.00;;;;;;;10.32;91.33;92268.69;2071400;69;20155;-80
2023/11/14 03:19:40;;;;;;;2.75;1.40;;;;;;;10.13;93.68;92261.31;2072082;69;20610;-81
2023/11/14 03:22:06;;;;;;;1.20;0.85;;;;;;;10.08;93.03;92262.44;2072366;69;20121;-80
2023/11/14 03:24:31;;;;;;;2.33;0.82;;;;;;;10.02;93.44;92264.88;2065808;69;20217;-79
2023/11/14 03:27:00;;;;;;;2.13;1.00;;;;;;;10.19;92.37;92255.28;2068574;69;20171;-80
2023/11/14 03:29:25;;;;;;;1.52;1.00;;;;;;;10.27;92.38;92261.38;2071952;69;20583;-81
2023/11/14 03:31:51;;;;;;;2.08;0.85;;;;;;;10.37;91.74;92270.38;2071812;69;20477;-81
2023/11/14 03:34:19;;;;;;;1.35;0.80;;;;;;;10.42;91.45;92252.34;2071747;69;20515;-81
2023/11/14 03:36:52;;;;;;;2.20;0.75;;;;;;;10.23;93.62;92263.94;2071541;69;20281;-82
2023/11/14 03:39:18;;;;;;;2.42;1.00;;;;;;;10.34;92.09;92260.34;2068029;69;20144;-82
2023/11/14 03:41:44;;;;;;;1.98;0.75;;;;;;;10.17;92.71;92255.91;2068307;69;20625;-79
2023/11/14 03:44:10;;;;;;;1.33;1.00;;;;;;;10.23;93.27;92252.69;2068136;69;20642;-79
2023/11/14 03:46:36;;;;;;;1.73;1.30;;;;;;;10.15;92.50;92255.78;2071656;69;20167;-79
2023/11/14 03:49:01;;;;;;;1.77;0.80;;;;;;;10.25;92.84;92240.84;2068066;69;20638;-79
2023/11/14 03:51:28;;;;;;;1.85;0.90;;;;;;;10.39;91.75;92245.13;2071492;69;20164;-79
2023/11/14 03:53:54;;;;;;;4.10;0.90;;;;;;;10.33;92.97;92249.72;2071517;69;20574;-81
2023/11/14 03:56:19;;;;;;;1.33;0.90;;;;;;;10.31;92.36;92241.16;2067832;69;20156;-78
2023/11/14 03:58:46;;;;;;;2.72;0.93;;;;;;;10.00;94.54;92219.78;2071542;69;20160;-79
2023/11/14 04:01:12;;;;;;;2.30;0.70;;;;;;;10.29;93.17;92236.16;2065174;69;20221;-79
2023/11/14 04:03:39;;;;;;;2.65;1.20;;;;;;;10.13;93.06;92236.00;2068004;69;20160;-79
2023/11/14 04:06:04;;;;;;;1.73;0.90;;;;;;;10.34;92.16;92243.47;2068020;69;20592;-82
2023/11/14 04:08:30;;;;;;;1.88;1.20;;;;;;;10.38;91.25;92240.13;2068137;69;20144;-82
2023/11/14 04:10:56;;;;;;;2.75;1.17;;;;;;;10.32;91.15;92218.03;2071243;69;20182;-83
2023/11/14 04:13:23;;;;;;;4.90;1.02;;;;;;;10.26;91.79;92231.75;2068040;69;20137;-80
2023/11/14 04:15:49;;;;;;;4.25;0.73;;;;;;;10.32;92.54;92242.63;2071390;69;20210;-78
2023/11/14 04:18:15;;;;;;;2.78;0.80;;;;;;;10.18;93.12;92220.78;2068082;69;20197;-79
2023/11/14 04:20:46;;;;;;;4.40;2.25;;;;;;;10.09;93.49;92210.44;2071321;69;20574;-82
2023/11/14 04:23:12;;;;;;;3.15;1.55;;;;;;;10.16;93.49;92209.41;2068045;69;20152;-82
2023/11/14 04:25:37;;;;;;;3.70;2.20;;;;;;;10.18;93.22;92181.41;2067772;69;20210;-82
2023/11/14 04:28:05;;;;;;;2.08;1.30;;;;;;;10.23;91.98;92182.34;2068008;69;20172;-83
2023/11/14 04:30:30;;;;;;;2.50;1.13;;;;;;;10.10;92.14;92166.91;2071325;69;20148;-80
2023/11/14 04:32:56;;;;;;;3.30;1.00;;;;;;;10.10;93.58;92158.47;2071342;69;20218;-81
2023/11/14 04:35:22;;;;;;;2.33;1.00;;;;;;;10.11;93.45;92173.97;2071448;69;20511;-81
2023/11/14 04:37:49;;;;;;;2.03;0.93;;;;;;;10.10;93.72;92172.53;2071341;69;20160;-81
2023/11/14 04:40:14;;;;;;;2.90;1.40;;;;;;;10.07;93.73;92167.41;2067818;69;20167;-83
2023/11/14 04:42:40;;;;;;;5.60;1.20;;;;;;;10.22;92.91;92177.34;2065467;69;20163;-83
2023/11/14 04:45:07;;;;;;;5.32;0.95;;;;;;;10.26;92.32;92180.41;2071963;69;20239;-84
2023/11/14 04:47:33;;;;;;;3.40;1.40;;;;;;;10.11;93.78;92201.38;2072067;69;20611;-83
2023/11/14 04:49:58;;;;;;;12.65;4.95;;;;;;;10.03;93.42;92190.41;2072158;69;20175;-82
2023/11/14 04:52:24;;;;;;;59.55;26.60;;;;;;;10.15;93.51;92185.47;2068731;69;20148;-83
2023/11/14 04:54:50;;;;;;;99.28;40.45;;;;;;;10.10;93.13;92191.50;2072615;69;20129;-82
2023/11/14 04:57:17;;;;;;;60.50;24.70;;;;;;;10.26;92.17;92211.34;2071185;69;20240;-80
2023/11/14 04:59:43;;;;;;;23.27;11.57;;;;;;;10.28;92.37;92217.81;2069111;69;20141;-81
2023/11/14 05:02:10;;;;;;;9.25;3.00;;;;;;;10.33;91.96;92199.06;2072160;69;20209;-82
2023/11/14 05:04:36;;;;;;;1.98;1.50;;;;;;;10.22;93.56;92203.41;2072071;69;20145;-81
2023/11/14 05:07:03;;;;;;;6.20;2.45;;;;;;;10.21;94.22;92198.38;2068709;69;20249;-82
2023/11/14 05:09:29;;;;;;;3.25;1.45;;;;;;;10.26;93.15;92200.09;2072102;69;20202;-80
2023/11/14 05:11:55;;;;;;;2.92;1.67;;;;;;;10.35;92.40;92213.25;2071910;69;20497;-80
2023/11/14 05:14:21;;;;;;;10.13;5.43;;;;;;;10.06;95.14;92220.13;2072022;69;20198;-82
2023/11/14 05:16:47;;;;;;;7.78;4.15;;;;;;;10.31;93.22;92219.41;2071989;69;20144;-82
2023/11/14 05:19:13;;;;;;;9.55;4.32;;;;;;;10.24;93.64;92219.66;2068832;69;20140;-83
2023/11/14 05:21:39;;;;;;;10.43;4.40;;;;;;;10.04;94.85;92228.47;2068607;69;20148;-82
2023/11/14 05:24:07;;;;;;;7.57;4.15;;;;;;;10.22;94.16;92251.22;2071954;69;20148;-78
2023/11/14 05:26:33;;;;;;;8.25;4.40;;;;;;;10.29;92.22;92235.44;2071937;69;20140;-82
2023/11/14 05:28:59;;;;;;;8.00;3.85;;;;;;;10.42;92.02;92240.38;2072115;69;20171;-81
2023/11/14 05:31:25;;;;;;;7.35;3.13;;;;;;;10.40;91.52;92240.25;2072115;69;20141;-80
2023/11/14 05:33:52;;;;;;;7.55;3.30;;;;;;;10.45;91.69;92241.22;2072262;69;20224;-82
2023/11/14 05:36:19;;;;;;;7.32;4.90;;;;;;;10.40;92.28;92226.94;2072233;69;20136;-79
2023/11/14 05:38:45;;;;;;;5.10;3.70;;;;;;;10.34;93.16;92209.69;2072171;69;20144;-82
2023/11/14 05:41:16;;;;;;;9.88;5.70;;;;;;;10.15;94.86;92193.16;2072376;69;20160;-80
2023/11/14 05:43:42;;;;;;;10.15;5.35;;;;;;;10.21;93.56;92193.47;2072164;69;20147;-80
2023/11/14 05:46:08;;;;;;;13.93;5.97;;;;;;;10.38;92.32;92207.09;2071975;69;20180;-79
2023/11/14 05:48:34;;;;;;;12.75;5.68;;;;;;;10.37;92.64;92204.94;2071915;69;20289;-80
2023/11/14 05:51:02;;;;;;;9.65;4.20;;;;;;;10.40;92.30;92220.53;2072027;69;20142;-80
2023/11/14 05:53:27;;;;;;;9.27;2.00;;;;;;;10.39;92.92;92235.97;2072068;69;20125;-83
2023/11/14 05:55:54;;;;;;;1.77;1.10;;;;;;;10.36;93.45;92240.78;2071664;69;20143;-81
2023/11/14 05:58:19;;;;;;;6.63;3.63;;;;;;;10.00;95.26;92225.41;2068526;69;20163;-78
2023/11/14 06:00:45;;;;;;;7.22;3.55;;;;;;;10.29;94.75;92238.97;2071886;69;20148;-79
2023/11/14 06:03:12;;;;;;;7.13;3.90;;;;;;;10.37;93.38;92256.28;2068563;69;20562;-80
2023/11/14 06:05:39;;;;;;;8.55;4.60;;;;;;;10.33;93.43;92272.97;2071961;69;20168;-78
2023/11/14 06:08:05;;;;;;;8.23;4.60;;;;;;;10.34;93.00;92282.84;2072067;69;20193;-80
2023/11/14 06:10:30;;;;;;;7.32;4.18;;;;;;;10.30;93.55;92293.88;2068721;69;20198;-79
2023/11/14 06:12:59;;;;;;;5.32;3.00;;;;;;;10.35;93.33;92318.06;2072021;69;20145;-79
2023/11/14 06:15:26;;;;;;;5.82;3.35;;;;;;;10.45;93.25;92342.53;2071894;69;20132;-80
2023/11/14 06:17:51;;;;;;;6.65;2.90;;;;;;;10.43;92.95;92341.03;2072123;69;20143;-80
2023/11/14 06:20:22;;;;;;;3.40;2.40;;;;;;;10.40;92.91;92333.84;2072004;69;20145;-79
2023/11/14 06:22:49;;;;;;;4.78;2.10;;;;;;;10.54;92.59;92345.16;2072043;69;20654;-80
2023/11/14 06:25:15;;;;;;;4.03;2.00;;;;;;;10.59;91.24;92351.75;2071789;69;20261;-83
2023/11/14 06:27:41;;;;;;;13.02;7.00;;;;;;;10.32;93.17;92335.47;2071973;69;20140;-82
2023/11/14 06:30:07;;;;;;;10.70;6.53;;;;;;;10.52;92.57;92349.94;2072002;69;20291;-80
2023/11/14 06:32:33;;;;;;;8.75;5.65;;;;;;;10.62;91.58;92347.66;2068370;69;20136;-79
2023/11/14 06:35:00;;;;;;;10.15;6.22;;;;;;;10.45;92.30;92360.13;2072049;69;20168;-79
2023/11/14 06:37:28;;;;;;;13.05;8.93;;;;;;;10.41;93.39;92374.69;2071981;69;20186;-79
2023/11/14 06:39:57;;;;;;;13.98;7.90;;;;;;;10.27;94.37;92393.59;2071792;69;20639;-79
2023/11/14 06:42:23;;;;;;;9.13;5.45;;;;;;;10.12;96.32;92406.06;2072131;69;20223;-79
2023/11/14 06:44:49;;;;;;;7.28;4.70;;;;;;;10.18;96.06;92414.88;2073604;69;20271;-80
2023/11/14 06:47:15;;;;;;;7.07;3.92;;;;;;;10.19;96.31;92429.66;2072389;69;20124;-79
2023/11/14 06:49:42;;;;;;;7.78;3.50;;;;;;;10.29;95.79;92435.91;2068563;69;20139;-81
2023/11/14 06:52:11;;;;;;;9.63;6.75;;;;;;;10.14;96.15;92459.66;2071859;69;20607;-81
2023/11/14 06:54:37;;;;;;;25.05;15.60;;;;;;;10.23;96.27;92463.66;2071534;69;20128;-81
2023/11/14 06:57:05;;;;;;;14.90;9.82;;;;;;;9.99;97.86;92465.78;2071611;69;20228;-80
2023/11/14 06:59:31;;;;;;;13.55;8.20;;;;;;;10.10;98.38;92481.91;2071936;69;20202;-79
2023/11/14 07:01:57;;;;;;;16.08;7.68;;;;;;;9.82;98.96;92464.09;2068435;69;20626;-82
2023/11/14 07:04:23;;;;;;;11.05;6.55;;;;;;;10.17;99.07;92478.13;2068502;69;20137;-83
2023/11/14 07:06:48;;;;;;;14.25;8.52;;;;;;;10.37;96.66;92467.31;2071576;69;20152;-82
2023/11/14 07:09:15;;;;;;;16.10;10.57;;;;;;;10.55;95.43;92466.91;2071865;69;20141;-79
2023/11/14 07:11:42;;;;;;;12.05;8.25;;;;;;;10.56;95.01;92463.47;2071670;69;20171;-81
2023/11/14 07:14:10;;;;;;;12.60;7.95;;;;;;;10.59;94.51;92455.88;2071627;69;20136;-78
2023/11/14 07:16:37;;;;;;;10.07;6.10;;;;;;;10.54;95.62;92434.50;2071715;69;20235;-80
2023/11/14 07:19:03;;;;;;;19.33;8.60;;;;;;;10.43;96.90;92417.00;2068563;69;20151;-81
2023/11/14 07:21:32;;;;;;;9.02;5.32;;;;;;;10.71;94.99;92425.59;2068335;69;20148;-80
2023/11/14 07:23:59;;;;;;;4.13;2.90;;;;;;;10.82;93.44;92435.34;2071726;69;20156;-80
2023/11/14 07:26:25;;;;;;;6.72;2.83;;;;;;;10.86;93.72;92427.13;2071590;69;20152;-78
2023/11/14 07:28:50;;;;;;;5.60;2.88;;;;;;;10.79;93.39;92426.03;2071677;69;20147;-78
2023/11/14 07:31:16;;;;;;;12.63;4.78;;;;;;;10.38;96.33;92428.66;2071815;69;20187;-80
2023/11/14 07:33:42;;;;;;;7.70;4.70;;;;;;;10.19;99.02;92440.94;2071857;69;20152;-81
2023/11/14 07:36:08;;;;;;;9.15;4.78;;;;;;;10.13;100.00;92449.75;2071679;69;20189;-80
2023/11/14 07:38:35;;;;;;;10.40;6.78;;;;;;;10.31;100.00;92461.34;2071850;69;20155;-81
2023/11/14 07:41:01;;;;;;;9.30;6.50;;;;;;;10.40;99.84;92471.72;2071739;69;20232;-83
2023/11/14 07:43:30;;;;;;;9.20;5.40;;;;;;;10.55;98.95;92492.25;2071778;69;20496;-83
2023/11/14 07:45:57;;;;;;;7.10;5.18;;;;;;;10.64;97.15;92500.53;2071933;69;20247;-82
2023/11/14 07:48:23;;;;;;;5.93;3.92;;;;;;;10.70;96.42;92497.31;2071861;69;20555;-82
2023/11/14 07:50:49;;;;;;;4.78;3.83;;;;;;;10.59;98.11;92500.94;2072017;69;20152;-82
2023/11/14 07:53:16;;;;;;;6.68;4.80;;;;;;;10.62;97.60;92500.41;2071650;69;20239;-80
2023/11/14 07:55:42;;;;;;;6.82;4.53;;;;;;;10.97;95.65;92529.81;2068325;69;20688;-81
2023/11/14 07:58:08;;;;;;;6.40;4.15;;;;;;;10.66;97.65;92525.97;2071735;69;20151;-82
2023/11/14 08:00:34;;;;;;;4.43;3.15;;;;;;;10.91;96.55;92538.66;2068002;69;20147;-82
2023/11/14 08:03:02;;;;;;;5.53;4.00;;;;;;;10.85;96.65;92530.56;2071663;69;20197;-78
2023/11/14 08:05:29;;;;;;;4.40;3.90;;;;;;;11.05;95.78;92533.09;2068249;69;20264;-80
2023/11/14 08:07:54;;;;;;;6.72;4.30;;;;;;;11.25;94.10;92553.94;2071616;69;20144;-80
2023/11/14 08:10:21;;;;;;;3.80;3.40;;;;;;;11.24;93.81;92560.19;2071572;69;20616;-80
2023/11/14 08:12:46;;;;;;;4.47;3.33;;;;;;;11.25;93.97;92564.47;2071553;69;20184;-77
2023/11/14 08:15:12;;;;;;;4.70;3.03;;;;;;;11.29;93.52;92568.25;2071579;69;20283;-79
2023/11/14 08:17:38;;;;;;;3.70;2.60;;;;;;;11.31;94.02;92576.81;2071506;69;20225;-82
2023/11/14 08:20:05;;;;;;;4.50;2.38;;;;;;;11.36;94.18;92578.53;2071692;69;20592;-80
2023/11/14 08:22:32;;;;;;;4.60;3.40;;;;;;;11.32;94.03;92583.19;2071483;69;20679;-80
2023/11/14 08:24:59;;;;;;;4.45;3.30;;;;;;;11.45;92.89;92585.31;2071621;69;20152;-83
2023/11/14 08:27:24;;;;;;;3.33;2.70;;;;;;;11.49;92.39;92593.28;2071898;69;20156;-84
2023/11/14 08:29:50;;;;;;;4.57;2.50;;;;;;;11.45;92.77;92596.59;2072827;69;20164;-81
2023/11/14 08:32:16;;;;;;;5.25;3.03;;;;;;;11.57;92.85;92599.38;2074963;69;20211;-82
2023/11/14 08:34:43;;;;;;;3.95;2.90;;;;;;;11.61;92.08;92605.97;2072038;69;20152;-78
2023/11/14 08:37:08;;;;;;;4.88;2.80;;;;;;;11.64;91.88;92616.00;2071929;69;20143;-78
2023/11/14 08:39:34;;;;;;;6.65;5.05;;;;;;;11.61;91.78;92620.06;2068438;69;20132;-80
2023/11/14 08:41:59;;;;;;;5.93;4.28;;;;;;;11.62;92.02;92621.53;2071538;69;20151;-78
2023/11/14 08:44:25;;;;;;;3.20;2.78;;;;;;;11.59;92.77;92611.50;2071640;69;20241;-81
2023/11/14 08:46:51;;;;;;;3.55;2.88;;;;;;;11.69;92.84;92597.22;2071724;69;20136;-79
2023/11/14 08:49:17;;;;;;;4.35;3.42;;;;;;;11.55;92.89;92588.72;2068284;69;20176;-85
2023/11/14 08:51:43;;;;;;;4.80;3.25;;;;;;;11.67;92.77;92594.28;2071703;69;20588;-84
2023/11/14 08:54:08;;;;;;;9.68;6.18;;;;;;;11.71;92.26;92592.41;2071699;69;20144;-84
2023/11/14 08:56:34;;;;;;;12.32;8.82;;;;;;;11.51;94.83;92611.03;2071448;69;20153;-85
2023/11/14 08:59:01;;;;;;;11.98;8.75;;;;;;;11.94;92.46;92605.66;2071509;69;20156;-82
2023/11/14 09:01:27;;;;;;;23.92;15.07;;;;;;;12.00;92.64;92608.09;2071687;69;20144;-82
2023/11/14 09:03:54;;;;;;;12.77;7.95;;;;;;;11.88;93.67;92611.00;2071566;69;20233;-83
2023/11/14 09:06:20;;;;;;;10.55;7.35;;;;;;;12.03;92.58;92589.19;2071554;69;20229;-79
2023/11/14 09:08:46;;;;;;;14.52;7.28;;;;;;;12.28;92.64;92596.84;2071700;69;20231;-79
2023/11/14 09:11:12;;;;;;;9.50;6.40;;;;;;;12.36;91.46;92606.47;2071505;69;20164;-81
2023/11/14 09:13:38;;;;;;;13.93;8.52;;;;;;;11.89;93.18;92606.09;2071728;69;20152;-79
2023/11/14 09:16:09;;;;;;;10.68;6.72;;;;;;;11.71;95.03;92600.16;2071532;69;20152;-80
2023/11/14 09:18:37;;;;;;;13.68;10.05;;;;;;;11.52;96.83;92594.88;2071567;69;20132;-80
2023/11/14 09:21:03;;;;;;;28.15;18.55;;;;;;;11.73;96.66;92582.59;2071493;69;20140;-83
2023/11/14 09:23:28;;;;;;;11.15;7.50;;;;;;;12.02;94.13;92582.81;2071488;69;20147;-82
2023/11/14 09:25:54;;;;;;;9.70;6.30;;;;;;;12.18;92.93;92585.75;2071350;69;20133;-82
2023/11/14 09:28:20;;;;;;;6.75;4.13;;;;;;;12.28;92.23;92574.25;2071409;69;20163;-82
2023/11/14 09:30:47;;;;;;;5.50;4.15;;;;;;;12.34;91.46;92578.16;2071810;69;20129;-81
2023/11/14 09:33:13;;;;;;;7.00;4.10;;;;;;;12.50;91.37;92581.06;2072182;69;20198;-82
2023/11/14 09:35:38;;;;;;;6.32;4.90;;;;;;;12.15;91.99;92613.16;2068607;69;20614;-82
2023/11/14 09:38:04;;;;;;;6.43;4.57;;;;;;;12.43;91.74;92641.41;2071685;69;20186;-82
2023/11/14 09:40:30;;;;;;;7.28;4.60;;;;;;;12.41;92.80;92636.38;2068432;69;20191;-82
2023/11/14 09:42:56;;;;;;;14.48;5.47;;;;;;;12.00;93.51;92644.75;2072078;69;20227;-80
2023/11/14 09:45:24;;;;;;;7.60;5.55;;;;;;;12.10;94.29;92648.16;2072163;69;20156;-80
2023/11/14 09:47:51;;;;;;;11.02;6.80;;;;;;;12.03;93.83;92640.69;2072038;69;20159;-80
2023/11/14 09:50:17;;;;;;;8.95;4.95;;;;;;;11.99;94.29;92586.16;2071979;69;20171;-79
2023/11/14 09:52:46;;;;;;;10.00;6.80;;;;;;;12.20;92.61;92585.88;2072038;69;20236;-80
2023/11/14 09:55:12;;;;;;;10.05;6.40;;;;;;;12.43;91.38;92582.88;2071911;69;20140;-81
2023/11/14 09:57:38;;;;;;;7.95;5.82;;;;;;;12.54;91.48;92589.03;2072016;69;20240;-81
2023/11/14 10:00:07;;;;;;;10.52;6.05;;;;;;;12.64;91.15;92576.16;2068523;69;20132;-81
2023/11/14 10:02:32;;;;;;;9.45;6.13;;;;;;;12.91;90.26;92554.88;2071944;69;20154;-81
2023/11/14 10:04:58;;;;;;;6.82;4.88;;;;;;;12.93;90.00;92552.91;2071940;69;20132;-81
2023/11/14 10:07:25;;;;;;;5.78;4.15;;;;;;;13.17;90.00;92539.25;2071963;69;20672;-82
2023/11/14 10:09:51;;;;;;;4.38;3.30;;;;;;;13.15;89.50;92536.31;2068494;69;20140;-80
2023/11/14 10:12:36;;;;;;;5.35;3.10;;;;;;;13.33;88.26;92533.69;2072055;69;20137;-77
2023/11/14 10:15:03;;;;;;;4.40;2.97;;;;;;;13.20;87.92;92517.47;2071889;69;20140;-80
2023/11/14 10:17:47;;;;;;;3.50;2.58;;;;;;;13.36;86.83;92526.75;2071903;69;20152;-81
2023/11/14 10:20:14;;;;;;;4.45;3.10;;;;;;;13.24;87.50;92520.53;2071952;69;20680;-79
2023/11/14 10:22:51;;;;;;;5.20;3.33;;;;;;;12.98;87.87;92509.34;2071718;69;20265;-76
2023/11/14 10:25:29;;;;;;;5.30;3.58;;;;;;;12.81;88.71;92520.50;2068232;69;20136;-80
2023/11/14 10:28:01;;;;;;;7.13;4.60;;;;;;;12.92;89.58;92531.69;2068450;69;20137;-78
2023/11/14 10:30:49;;;;;;;5.88;4.10;;;;;;;12.99;88.91;92515.75;2071790;69;20143;-79
2023/11/14 10:33:19;;;;;;;4.78;3.13;;;;;;;13.14;89.14;92500.19;2071779;69;20585;-80
2023/11/14 10:35:46;;;;;;;6.93;3.83;;;;;;;13.07;88.67;92478.69;2071755;69;20143;-79
2023/11/14 10:38:24;;;;;;;5.32;3.85;;;;;;;13.17;87.94;92474.22;2068308;69;20140;-77
2023/11/14 10:40:55;;;;;;;5.70;3.10;;;;;;;13.16;88.11;92480.53;2071571;69;20177;-78
2023/11/14 10:43:29;;;;;;;5.13;3.17;;;;;;;13.17;88.71;92490.47;2065557;69;20661;-79
2023/11/14 10:45:55;;;;;;;7.72;3.45;;;;;;;13.20;88.96;92487.09;2071713;69;20136;-78
2023/11/14 10:48:22;;;;;;;5.85;2.95;;;;;;;13.27;88.48;92479.66;2071760;69;20165;-79
2023/11/14 10:50:49;;;;;;;3.40;2.47;;;;;;;13.31;87.85;92471.38;2071764;69;20147;-79
2023/11/14 10:53:18;;;;;;;3.70;2.65;;;;;;;13.31;88.07;92465.00;2068390;69;20136;-78
2023/11/14 10:55:47;;;;;;;5.88;2.33;;;;;;;13.30;87.49;92486.16;2071664;69;20495;-81
2023/11/14 10:58:14;;;;;;;5.63;2.58;;;;;;;13.36;88.33;92484.31;2071710;69;20206;-80
2023/11/14 11:00:41;;;;;;;5.35;2.80;;;;;;;13.44;87.64;92486.81;2071809;69;20271;-83
2023/11/14 11:03:08;;;;;;;4.00;2.80;;;;;;;13.40;87.95;92500.75;2071819;69;20148;-81
2023/11/14 11:05:34;;;;;;;3.72;2.55;;;;;;;13.35;87.94;92505.50;2071746;69;20184;-83
2023/11/14 11:08:04;;;;;;;4.28;2.58;;;;;;;13.35;86.92;92505.50;2071805;69;20259;-80
2023/11/14 11:10:35;;;;;;;4.60;2.58;;;;;;;13.51;86.99;92504.78;2071638;69;20167;-79
2023/11/14 11:13:17;;;;;;;4.45;4.00;;;;;;;13.48;86.64;92484.19;2071687;69;20514;-80
2023/11/14 11:15:44;;;;;;;7.30;4.32;;;;;;;12.78;88.76;92434.19;2071704;69;20164;-83
2023/11/14 11:18:10;;;;;;;9.95;7.47;;;;;;;13.12;89.06;92421.72;2071760;69;20175;-80
2023/11/14 11:20:36;;;;;;;8.20;6.13;;;;;;;13.31;88.48;92420.47;2071715;69;20139;-82
2023/11/14 11:23:04;;;;;;;7.78;5.63;;;;;;;13.54;87.15;92391.13;2071784;69;20156;-80
2023/11/14 11:25:32;;;;;;;9.40;5.43;;;;;;;13.60;87.04;92390.66;2071669;69;20200;-79
2023/11/14 11:27:58;;;;;;;5.38;3.20;;;;;;;13.75;85.99;92409.75;2068425;69;20559;-77
2023/11/14 11:30:26;;;;;;;3.90;3.08;;;;;;;13.70;85.24;92410.94;2071673;69;20132;-78